createdAt,value
2023-11-10T07:47:07.399Z,98307.00
2023-11-10T07:47:18.630Z,98309.00
2023-11-10T07:47:30.167Z,98307.00
2023-11-10T07:47:41.448Z,98307.00
2023-11-10T07:47:53.172Z,98307.00
2023-11-10T07:48:04.697Z,98307.00
2023-11-10T07:48:16.224Z,98307.00
2023-11-10T07:48:27.495Z,98305.00
2023-11-10T07:48:39.032Z,98303.00
2023-11-10T07:48:50.339Z,98303.00
2023-11-10T07:49:01.910Z,98303.00
2023-11-10T07:49:13.164Z,98303.00
2023-11-10T07:49:24.692Z,98301.00
2023-11-10T07:49:35.985Z,98307.00
2023-11-10T07:49:47.511Z,98303.00
2023-11-10T07:49:58.784Z,98303.00
2023-11-10T07:50:10.317Z,98305.00
2023-11-10T07:50:21.707Z,98305.00
2023-11-10T07:50:33.240Z,98303.00
2023-11-10T07:50:44.493Z,98303.00
2023-11-10T07:50:56.026Z,98303.00
2023-11-10T07:51:07.298Z,98301.00
2023-11-10T07:51:18.909Z,98303.00
2023-11-10T07:51:30.221Z,98299.00
2023-11-10T07:51:41.795Z,98295.00
2023-11-10T07:51:53.098Z,98297.00
2023-11-10T07:52:04.597Z,98299.00
2023-11-10T07:52:15.890Z,98297.00
2023-11-10T07:52:27.431Z,98295.00
2023-11-10T07:52:38.699Z,98295.00
2023-11-10T07:52:50.230Z,98297.00
2023-11-10T07:53:01.528Z,98297.00
2023-11-10T07:53:13.073Z,98295.00
2023-11-10T07:53:24.347Z,98295.00
2023-11-10T07:53:35.884Z,98295.00
2023-11-10T07:53:47.133Z,98297.00
2023-11-10T07:53:58.669Z,98295.00
2023-11-10T07:54:09.944Z,98295.00
2023-11-10T07:54:21.576Z,98295.00
2023-11-10T07:54:32.821Z,98295.00
2023-11-10T07:54:44.423Z,98297.00
2023-11-10T07:54:58.360Z,98297.00
2023-11-10T07:55:08.014Z,98295.00
2023-11-10T07:55:19.587Z,98295.00
2023-11-10T07:55:30.862Z,98295.00
2023-11-10T07:55:42.430Z,98297.00
2023-11-10T07:55:54.265Z,98297.00
2023-11-10T07:56:04.091Z,98295.00
2023-11-10T07:56:15.614Z,98295.00
2023-11-10T07:56:26.882Z,98295.00
2023-11-10T07:56:38.448Z,98295.00
2023-11-10T07:56:49.685Z,98293.00
2023-11-10T07:57:01.208Z,98293.00
2023-11-10T07:57:12.478Z,98295.00
2023-11-10T07:57:24.012Z,98291.00
2023-11-10T07:57:35.300Z,98293.00
2023-11-10T07:57:46.934Z,98293.00
2023-11-10T07:57:58.248Z,98291.00
2023-11-10T07:58:09.754Z,98289.00
2023-11-10T07:58:21.016Z,98289.00
2023-11-10T07:58:32.534Z,98289.00
2023-11-10T07:58:43.794Z,98289.00
2023-11-10T07:58:55.349Z,98293.00
2023-11-10T07:59:06.618Z,98291.00
2023-11-10T07:59:18.148Z,98291.00
2023-11-10T07:59:29.404Z,98291.00
2023-11-10T07:59:40.931Z,98289.00
2023-11-10T07:59:52.244Z,98293.00
2023-11-10T08:00:03.764Z,98289.00
2023-11-10T08:00:15.204Z,98291.00
2023-11-10T08:00:26.733Z,98289.00
2023-11-10T08:00:38.051Z,98295.00
2023-11-10T08:00:49.641Z,98295.00
2023-11-10T08:01:00.967Z,98295.00
2023-11-10T08:01:12.469Z,98295.00
2023-11-10T08:01:23.716Z,98297.00
2023-11-10T08:01:35.263Z,98295.00
2023-11-10T08:01:46.518Z,98289.00
2023-11-10T08:01:58.043Z,98293.00
2023-11-10T08:02:09.305Z,98291.00
2023-11-10T08:02:21.829Z,98287.00
2023-11-10T08:02:30.972Z,98287.00
2023-11-10T08:02:42.812Z,98289.00
2023-11-10T08:02:55.344Z,98295.00
2023-11-10T08:03:06.969Z,98285.00
2023-11-10T08:03:18.308Z,98285.00
2023-11-10T08:03:30.014Z,98287.00
2023-11-10T08:03:41.456Z,98287.00
2023-11-10T08:03:53.148Z,98291.00
2023-11-10T08:04:04.543Z,98293.00
2023-11-10T08:04:16.165Z,98285.00
2023-11-10T08:04:27.556Z,98285.00
2023-11-10T08:04:39.346Z,98289.00
2023-11-10T08:04:50.779Z,98293.00
2023-11-10T08:05:02.369Z,98293.00
2023-11-10T08:05:13.661Z,98285.00
2023-11-10T08:05:25.281Z,98287.00
2023-11-10T08:05:37.177Z,98291.00
2023-11-10T08:05:48.479Z,98285.00
2023-11-10T08:05:59.993Z,98285.00
2023-11-10T08:06:11.255Z,98283.00
2023-11-10T08:06:22.800Z,98287.00
2023-11-10T08:06:34.095Z,98281.00
2023-11-10T08:06:45.669Z,98281.00
2023-11-10T08:06:56.952Z,98289.00
2023-11-10T08:07:08.477Z,98287.00
2023-11-10T08:07:19.768Z,98279.00
2023-11-10T08:07:31.285Z,98289.00
2023-11-10T08:07:42.593Z,98281.00
2023-11-10T08:07:54.461Z,98279.00
2023-11-10T08:08:05.779Z,98281.00
2023-11-10T08:08:17.311Z,98277.00
2023-11-10T08:08:28.577Z,98283.00
2023-11-10T08:08:40.101Z,98279.00
2023-11-10T08:08:51.500Z,98275.00
2023-11-10T08:09:02.998Z,98283.00
2023-11-10T08:09:14.270Z,98275.00
2023-11-10T08:09:25.828Z,98275.00
2023-11-10T08:09:37.113Z,98277.00
2023-11-10T08:09:48.707Z,98283.00
2023-11-10T08:10:01.476Z,98273.00
2023-11-10T08:10:12.041Z,98283.00
2023-11-10T08:10:23.571Z,98281.00
2023-11-10T08:10:34.838Z,98273.00
2023-11-10T08:10:46.362Z,98279.00
2023-11-10T08:10:57.653Z,98275.00
2023-11-10T08:11:09.198Z,98277.00
2023-11-10T08:11:20.461Z,98273.00
2023-11-10T08:11:42.084Z,98273.00
2023-11-10T08:11:50.240Z,98273.00
2023-11-10T08:11:55.871Z,98273.00
2023-11-10T08:12:07.136Z,98275.00
2023-11-10T08:12:18.672Z,98273.00
2023-11-10T08:12:29.993Z,98272.00
2023-11-10T08:12:41.521Z,98273.00
2023-11-10T08:12:52.800Z,98277.00
2023-11-10T08:13:04.317Z,98275.00
2023-11-10T08:13:15.582Z,98273.00
2023-11-10T08:13:27.098Z,98273.00
2023-11-10T08:13:38.364Z,98273.00
2023-11-10T08:13:49.904Z,98270.00
2023-11-10T08:14:01.170Z,98272.00
2023-11-10T08:14:12.672Z,98270.00
2023-11-10T08:14:23.938Z,98272.00
2023-11-10T08:14:35.489Z,98270.00
2023-11-10T08:14:46.887Z,98273.00
2023-11-10T08:14:58.471Z,98270.00
2023-11-10T08:15:09.808Z,98272.00
2023-11-10T08:15:21.434Z,98272.00
2023-11-10T08:15:32.796Z,98270.00
2023-11-10T08:15:44.372Z,98277.00
2023-11-10T08:15:55.740Z,98277.00
2023-11-10T08:16:07.391Z,98279.00
2023-11-10T08:16:18.722Z,98272.00
2023-11-10T08:16:30.326Z,98272.00
2023-11-10T08:16:41.585Z,98273.00
2023-11-10T08:16:53.876Z,98273.00
2023-11-10T08:17:05.392Z,98272.00
2023-11-10T08:17:16.734Z,98272.00
2023-11-10T08:17:28.456Z,98272.00
2023-11-10T08:17:39.883Z,98272.00
2023-11-10T08:17:51.454Z,98273.00
2023-11-10T08:18:02.711Z,98270.00
2023-11-10T08:18:14.384Z,98275.00
2023-11-10T08:18:25.700Z,98272.00
2023-11-10T08:18:37.224Z,98272.00
2023-11-10T08:18:48.497Z,98268.00
2023-11-10T08:19:00.071Z,98270.00
2023-11-10T08:19:11.337Z,98272.00
2023-11-10T08:19:22.863Z,98272.00
2023-11-10T08:19:34.109Z,98272.00
2023-11-10T08:19:45.650Z,98270.00
2023-11-10T08:19:56.939Z,98270.00
2023-11-10T08:20:08.445Z,98272.00
2023-11-10T08:20:19.744Z,98272.00
2023-11-10T08:20:31.287Z,98270.00
2023-11-10T08:20:42.556Z,98270.00
2023-11-10T08:20:54.079Z,98277.00
2023-11-10T08:21:05.382Z,98270.00
2023-11-10T08:21:16.918Z,98273.00
2023-11-10T08:21:28.192Z,98272.00
2023-11-10T08:21:41.003Z,98270.00
2023-11-10T08:21:50.400Z,98270.00
2023-11-10T08:22:01.972Z,98270.00
2023-11-10T08:22:13.273Z,98268.00
2023-11-10T08:22:24.812Z,98268.00
2023-11-10T08:22:36.082Z,98270.00
2023-11-10T08:22:47.620Z,98266.00
2023-11-10T08:22:58.880Z,98264.00
2023-11-10T08:23:10.828Z,98268.00
2023-11-10T08:23:22.130Z,98270.00
2023-11-10T08:23:33.649Z,98262.00
2023-11-10T08:23:44.917Z,98262.00
2023-11-10T08:23:56.444Z,98260.00
2023-11-10T08:24:07.714Z,98262.00
2023-11-10T08:24:19.262Z,98260.00
2023-11-10T08:24:30.615Z,98260.00
2023-11-10T08:24:42.156Z,98260.00
2023-11-10T08:24:53.417Z,98258.00
2023-11-10T08:25:05.025Z,98262.00
2023-11-10T08:25:16.309Z,98260.00
2023-11-10T08:25:27.831Z,98262.00
2023-11-10T08:25:39.094Z,98262.00
2023-11-10T08:25:50.627Z,98262.00
2023-11-10T08:26:01.891Z,98262.00
2023-11-10T08:26:13.419Z,98260.00
2023-11-10T08:26:24.699Z,98264.00
2023-11-10T08:26:36.236Z,98260.00
2023-11-10T08:26:47.496Z,98260.00
2023-11-10T08:26:59.043Z,98258.00
2023-11-10T08:27:10.306Z,98260.00
2023-11-10T08:27:21.871Z,98266.00
2023-11-10T08:27:33.156Z,98258.00
2023-11-10T08:27:44.724Z,98264.00
2023-11-10T08:27:56.171Z,98258.00
2023-11-10T08:28:07.700Z,98258.00
2023-11-10T08:28:18.987Z,98268.00
2023-11-10T08:28:30.490Z,98256.00
2023-11-10T08:28:41.766Z,98262.00
2023-11-10T08:28:53.341Z,98262.00
2023-11-10T08:29:04.590Z,98260.00
2023-11-10T08:29:16.126Z,98260.00
2023-11-10T08:29:27.392Z,98266.00
2023-11-10T08:29:38.913Z,98260.00
2023-11-10T08:29:50.202Z,98260.00
2023-11-10T08:30:01.750Z,98258.00
2023-11-10T08:30:13.069Z,98258.00
2023-11-10T08:30:24.650Z,98256.00
2023-11-10T08:30:36.813Z,98256.00
2023-11-10T08:30:48.208Z,98258.00
2023-11-10T08:30:59.757Z,98260.00
2023-11-10T08:31:11.066Z,98258.00
2023-11-10T08:31:22.650Z,98258.00
2023-11-10T08:31:33.975Z,98258.00
2023-11-10T08:31:45.530Z,98260.00
2023-11-10T08:31:56.809Z,98260.00
2023-11-10T08:32:08.325Z,98258.00
2023-11-10T08:32:19.641Z,98260.00
2023-11-10T08:32:31.228Z,98258.00
2023-11-10T08:32:42.567Z,98258.00
2023-11-10T08:32:54.511Z,98260.00
2023-11-10T08:33:05.866Z,98258.00
2023-11-10T08:33:17.453Z,98260.00
2023-11-10T08:33:28.912Z,98258.00
2023-11-10T08:33:40.573Z,98268.00
2023-11-10T08:33:51.975Z,98262.00
2023-11-10T08:34:03.663Z,98266.00
2023-11-10T08:34:14.999Z,98262.00
2023-11-10T08:34:26.828Z,98260.00
2023-11-10T08:34:38.126Z,98270.00
2023-11-10T08:34:49.637Z,98262.00
2023-11-10T08:35:00.929Z,98262.00
2023-11-10T08:35:12.459Z,98262.00
2023-11-10T08:35:23.731Z,98262.00
2023-11-10T08:35:35.289Z,98262.00
2023-11-10T08:35:46.623Z,98262.00
2023-11-10T08:35:58.140Z,98262.00
2023-11-10T08:36:09.470Z,98262.00
2023-11-10T08:36:21.064Z,98260.00
2023-11-10T08:36:32.331Z,98266.00
2023-11-10T08:36:43.882Z,98260.00
2023-11-10T08:36:55.199Z,98260.00
2023-11-10T08:37:06.716Z,98260.00
2023-11-10T08:37:17.978Z,98260.00
2023-11-10T08:37:29.535Z,98262.00
2023-11-10T08:37:40.816Z,98260.00
2023-11-10T08:37:52.313Z,98258.00
2023-11-10T08:38:03.667Z,98262.00
2023-11-10T08:38:15.185Z,98264.00
2023-11-10T08:38:26.452Z,98256.00
2023-11-10T08:38:37.978Z,98258.00
2023-11-10T08:38:49.247Z,98258.00
2023-11-10T08:39:00.780Z,98258.00
2023-11-10T08:39:12.081Z,98258.00
2023-11-10T08:39:23.649Z,98256.00
2023-11-10T08:39:34.909Z,98254.00
2023-11-10T08:39:46.467Z,98258.00
2023-11-10T08:39:57.741Z,98256.00
2023-11-10T08:40:09.265Z,98254.00
2023-11-10T08:40:20.528Z,98252.00
2023-11-10T08:40:34.887Z,98254.00
2023-11-10T08:40:42.554Z,98252.00
2023-11-10T08:40:53.822Z,98250.00
2023-11-10T08:41:05.356Z,98250.00
2023-11-10T08:41:16.661Z,98252.00
2023-11-10T08:41:28.166Z,98252.00
2023-11-10T08:41:39.471Z,98252.00
2023-11-10T08:41:50.996Z,98258.00
2023-11-10T08:42:02.271Z,98258.00
2023-11-10T08:42:13.819Z,98254.00
2023-11-10T08:42:25.163Z,98248.00
2023-11-10T08:42:36.707Z,98246.00
2023-11-10T08:42:48.003Z,98248.00
2023-11-10T08:42:59.550Z,98248.00
2023-11-10T08:43:10.826Z,98246.00
2023-11-10T08:43:22.354Z,98246.00
2023-11-10T08:43:33.614Z,98254.00
2023-11-10T08:43:45.138Z,98254.00
2023-11-10T08:43:56.398Z,98248.00
2023-11-10T08:44:07.920Z,98248.00
2023-11-10T08:44:19.190Z,98250.00
2023-11-10T08:44:30.733Z,98246.00
2023-11-10T08:44:42.021Z,98246.00
2023-11-10T08:44:53.559Z,98246.00
2023-11-10T08:45:04.824Z,98246.00
2023-11-10T08:45:17.169Z,98254.00
2023-11-10T08:45:26.479Z,98252.00
2023-11-10T08:45:38.224Z,98254.00
2023-11-10T08:45:49.722Z,98246.00
2023-11-10T08:46:01.327Z,98246.00
2023-11-10T08:46:12.701Z,98246.00
2023-11-10T08:46:24.337Z,98250.00
2023-11-10T08:46:35.698Z,98254.00
2023-11-10T08:46:47.281Z,98252.00
2023-11-10T08:46:58.592Z,98244.00
2023-11-10T08:47:10.578Z,98246.00
2023-11-10T08:47:21.904Z,98246.00
2023-11-10T08:47:33.466Z,98248.00
2023-11-10T08:47:44.776Z,98246.00
2023-11-10T08:47:56.297Z,98244.00
2023-11-10T08:48:07.581Z,98242.00
2023-11-10T08:48:19.103Z,98244.00
2023-11-10T08:48:30.392Z,98242.00
2023-11-10T08:48:41.955Z,98252.00
2023-11-10T08:48:53.269Z,98244.00
2023-11-10T08:49:04.877Z,98244.00
2023-11-10T08:49:16.174Z,98242.00
2023-11-10T08:49:27.720Z,98248.00
2023-11-10T08:49:39.088Z,98248.00
2023-11-10T08:49:50.628Z,98238.00
2023-11-10T08:50:01.892Z,98246.00
2023-11-10T08:50:13.430Z,98246.00
2023-11-10T08:50:24.687Z,98248.00
2023-11-10T08:50:36.845Z,98242.00
2023-11-10T08:50:48.381Z,98246.00
2023-11-10T08:50:59.648Z,98242.00
2023-11-10T08:51:11.288Z,98238.00
2023-11-10T08:51:22.520Z,98240.00
2023-11-10T08:51:34.186Z,98234.00
2023-11-10T08:51:45.570Z,98244.00
2023-11-10T08:51:57.848Z,98236.00
2023-11-10T08:52:09.420Z,98236.00
2023-11-10T08:52:20.693Z,98236.00
2023-11-10T08:52:32.213Z,98238.00
2023-11-10T08:52:43.546Z,98238.00
2023-11-10T08:52:55.079Z,98238.00
2023-11-10T08:53:06.389Z,98244.00
2023-11-10T08:53:17.935Z,98240.00
2023-11-10T08:53:29.225Z,98242.00
2023-11-10T08:53:40.760Z,98244.00
2023-11-10T08:53:52.053Z,98242.00
2023-11-10T08:54:03.614Z,98236.00
2023-11-10T08:54:14.851Z,98240.00
2023-11-10T08:54:26.395Z,98236.00
2023-11-10T08:54:37.696Z,98238.00
2023-11-10T08:54:49.275Z,98234.00
2023-11-10T08:55:00.586Z,98236.00
2023-11-10T08:55:12.146Z,98242.00
2023-11-10T08:55:23.457Z,98244.00
2023-11-10T08:55:35.027Z,98244.00
2023-11-10T08:55:46.303Z,98244.00
2023-11-10T08:55:57.837Z,98234.00
2023-11-10T08:56:09.161Z,98234.00
2023-11-10T08:56:20.702Z,98236.00
2023-11-10T08:56:31.974Z,98234.00
2023-11-10T08:56:43.519Z,98234.00
2023-11-10T08:56:54.817Z,98226.00
2023-11-10T08:57:06.342Z,98226.00
2023-11-10T08:57:17.616Z,98226.00
2023-11-10T08:57:29.197Z,98226.00
2023-11-10T08:57:40.507Z,98226.00
2023-11-10T08:57:52.124Z,98226.00
2023-11-10T08:58:03.491Z,98226.00
2023-11-10T08:58:15.015Z,98224.00
2023-11-10T08:58:26.282Z,98234.00
2023-11-10T08:58:38.325Z,98222.00
2023-11-10T08:58:49.922Z,98222.00
2023-11-10T08:59:01.201Z,98222.00
2023-11-10T08:59:12.730Z,98222.00
2023-11-10T08:59:24.037Z,98222.00
2023-11-10T08:59:35.585Z,98222.00
2023-11-10T08:59:46.960Z,98222.00
2023-11-10T08:59:58.509Z,98220.00
2023-11-10T09:00:09.826Z,98220.00
2023-11-10T09:00:21.517Z,98222.00
2023-11-10T09:00:32.825Z,98218.00
2023-11-10T09:00:44.416Z,98222.00
2023-11-10T09:00:55.741Z,98218.00
2023-11-10T09:01:07.336Z,98222.00
2023-11-10T09:01:18.675Z,98220.00
2023-11-10T09:01:30.194Z,98234.00
2023-11-10T09:01:41.538Z,98226.00
2023-11-10T09:01:53.131Z,98224.00
2023-11-10T09:02:04.594Z,98226.00
2023-11-10T09:02:16.103Z,98226.00
2023-11-10T09:02:27.538Z,98220.00
2023-11-10T09:02:39.104Z,98218.00
2023-11-10T09:02:50.379Z,98218.00
2023-11-10T09:03:02.027Z,98218.00
2023-11-10T09:03:13.470Z,98218.00
2023-11-10T09:03:25.189Z,98218.00
2023-11-10T09:03:37.045Z,98216.00
2023-11-10T09:03:48.486Z,98218.00
2023-11-10T09:04:11.770Z,98216.00
2023-11-10T09:04:21.219Z,98216.00
2023-11-10T09:04:25.429Z,98214.00
2023-11-10T09:04:34.945Z,98216.00
2023-11-10T09:04:46.538Z,98214.00
2023-11-10T09:04:57.891Z,98216.00
2023-11-10T09:05:09.539Z,98214.00
2023-11-10T09:05:20.855Z,98222.00
2023-11-10T09:05:32.370Z,98222.00
2023-11-10T09:05:43.649Z,98220.00
2023-11-10T09:05:55.171Z,98212.00
2023-11-10T09:06:06.472Z,98218.00
2023-11-10T09:06:18.033Z,98218.00
2023-11-10T09:06:29.320Z,98212.00
2023-11-10T09:06:40.885Z,98216.00
2023-11-10T09:06:52.292Z,98216.00
2023-11-10T09:07:07.335Z,98218.00
2023-11-10T09:07:15.085Z,98210.00
2023-11-10T09:07:26.350Z,98214.00
2023-11-10T09:07:37.877Z,98214.00
2023-11-10T09:07:49.952Z,98212.00
2023-11-10T09:08:01.472Z,98218.00
2023-11-10T09:08:12.741Z,98214.00
2023-11-10T09:08:24.272Z,98212.00
2023-11-10T09:08:35.571Z,98212.00
2023-11-10T09:08:47.100Z,98210.00
2023-11-10T09:08:58.363Z,98210.00
2023-11-10T09:09:09.939Z,98208.00
2023-11-10T09:09:21.206Z,98210.00
2023-11-10T09:09:32.756Z,98206.00
2023-11-10T09:09:44.034Z,98206.00
2023-11-10T09:09:55.568Z,98210.00
2023-11-10T09:10:06.866Z,98212.00
2023-11-10T09:10:18.379Z,98208.00
2023-11-10T09:10:29.645Z,98208.00
2023-11-10T09:10:41.173Z,98208.00
2023-11-10T09:10:52.449Z,98208.00
2023-11-10T09:11:03.988Z,98212.00
2023-11-10T09:11:15.272Z,98208.00
2023-11-10T09:11:26.786Z,98208.00
2023-11-10T09:11:38.066Z,98206.00
2023-11-10T09:11:49.576Z,98206.00
2023-11-10T09:12:00.813Z,98206.00
2023-11-10T09:12:12.388Z,98206.00
2023-11-10T09:12:23.687Z,98212.00
2023-11-10T09:12:35.249Z,98212.00
2023-11-10T09:12:46.574Z,98208.00
2023-11-10T09:12:58.118Z,98212.00
2023-11-10T09:13:09.351Z,98212.00
2023-11-10T09:13:20.183Z,98206.00
2023-11-10T09:13:31.721Z,98208.00
2023-11-10T09:13:42.983Z,98206.00
2023-11-10T09:13:54.506Z,98204.00
2023-11-10T09:14:05.783Z,98208.00
2023-11-10T09:14:17.318Z,98206.00
2023-11-10T09:14:28.618Z,98206.00
2023-11-10T09:14:40.153Z,98204.00
2023-11-10T09:14:51.412Z,98206.00
2023-11-10T09:15:02.948Z,98206.00
2023-11-10T09:15:14.219Z,98212.00
2023-11-10T09:15:25.858Z,98204.00
2023-11-10T09:15:37.184Z,98210.00
2023-11-10T09:15:56.863Z,98210.00
2023-11-10T09:16:02.724Z,98204.00
2023-11-10T09:16:12.279Z,98206.00
2023-11-10T09:16:23.926Z,98208.00
2023-11-10T09:16:35.324Z,98208.00
2023-11-10T09:16:47.203Z,98204.00
2023-11-10T09:16:58.929Z,98206.00
2023-11-10T09:17:10.199Z,98206.00
2023-11-10T09:17:21.740Z,98203.00
2023-11-10T09:17:33.054Z,98203.00
2023-11-10T09:17:44.699Z,98206.00
2023-11-10T09:17:55.986Z,98212.00
2023-11-10T09:18:07.551Z,98206.00
2023-11-10T09:18:18.807Z,98212.00
2023-11-10T09:18:30.381Z,98204.00
2023-11-10T09:18:41.708Z,98210.00
2023-11-10T09:18:53.252Z,98206.00
2023-11-10T09:19:04.590Z,98204.00
2023-11-10T09:19:16.144Z,98204.00
2023-11-10T09:19:27.428Z,98208.00
2023-11-10T09:19:39.001Z,98206.00
2023-11-10T09:19:50.248Z,98203.00
2023-11-10T09:20:03.933Z,98206.00
2023-11-10T09:20:12.628Z,98201.00
2023-11-10T09:20:23.910Z,98199.00
2023-11-10T09:20:35.457Z,98199.00
2023-11-10T09:20:46.748Z,98197.00
2023-11-10T09:20:58.528Z,98197.00
2023-11-10T09:21:09.793Z,98195.00
2023-11-10T09:21:21.387Z,98195.00
2023-11-10T09:21:33.086Z,98193.00
2023-11-10T09:21:44.734Z,98197.00
2023-11-10T09:21:56.021Z,98193.00
2023-11-10T09:22:07.558Z,98189.00
2023-11-10T09:22:18.852Z,98187.00
2023-11-10T09:22:30.408Z,98187.00
2023-11-10T09:22:41.745Z,98187.00
2023-11-10T09:22:53.318Z,98189.00
2023-11-10T09:23:04.589Z,98187.00
2023-11-10T09:23:16.204Z,98187.00
2023-11-10T09:23:27.441Z,98187.00
2023-11-10T09:23:38.984Z,98187.00
2023-11-10T09:23:50.313Z,98185.00
2023-11-10T09:24:01.820Z,98183.00
2023-11-10T09:24:13.080Z,98183.00
2023-11-10T09:24:24.665Z,98181.00
2023-11-10T09:24:36.020Z,98181.00
2023-11-10T09:24:47.643Z,98179.00
2023-11-10T09:24:58.971Z,98187.00
2023-11-10T09:25:10.495Z,98177.00
2023-11-10T09:25:22.023Z,98175.00
2023-11-10T09:25:33.672Z,98175.00
2023-11-10T09:25:44.914Z,98175.00
2023-11-10T09:25:56.440Z,98175.00
2023-11-10T09:26:07.706Z,98173.00
2023-11-10T09:26:19.240Z,98177.00
2023-11-10T09:26:30.505Z,98175.00
2023-11-10T09:26:42.045Z,98171.00
2023-11-10T09:26:53.342Z,98171.00
2023-11-10T09:27:04.875Z,98171.00
2023-11-10T09:27:16.151Z,98169.00
2023-11-10T09:27:27.708Z,98169.00
2023-11-10T09:27:39.003Z,98167.00
2023-11-10T09:27:50.586Z,98169.00
2023-11-10T09:28:05.346Z,98167.00
2023-11-10T09:28:13.115Z,98165.00
2023-11-10T09:28:24.405Z,98165.00
2023-11-10T09:28:36.040Z,98165.00
2023-11-10T09:28:47.305Z,98163.00
2023-11-10T09:28:58.862Z,98167.00
2023-11-10T09:29:10.218Z,98161.00
2023-11-10T09:29:21.770Z,98163.00
2023-11-10T09:29:33.026Z,98161.00
2023-11-10T09:29:44.603Z,98159.00
2023-11-10T09:29:55.828Z,98157.00
2023-11-10T09:30:07.365Z,98163.00
2023-11-10T09:30:18.640Z,98157.00
2023-11-10T09:30:30.247Z,98157.00
2023-11-10T09:30:41.576Z,98156.00
2023-11-10T09:30:53.081Z,98156.00
2023-11-10T09:31:04.369Z,98156.00
2023-11-10T09:31:16.910Z,98154.00
2023-11-10T09:31:26.182Z,98156.00
2023-11-10T09:31:37.746Z,98152.00
2023-11-10T09:31:49.056Z,98156.00
2023-11-10T09:32:00.625Z,98154.00
2023-11-10T09:32:12.041Z,98152.00
2023-11-10T09:32:23.611Z,98152.00
2023-11-10T09:32:34.898Z,98154.00
2023-11-10T09:32:46.426Z,98152.00
2023-11-10T09:32:57.807Z,98152.00
2023-11-10T09:33:09.489Z,98152.00
2023-11-10T09:33:20.742Z,98152.00
2023-11-10T09:33:32.325Z,98150.00
2023-11-10T09:33:43.585Z,98152.00
2023-11-10T09:33:55.202Z,98148.00
2023-11-10T09:34:06.535Z,98150.00
2023-11-10T09:34:18.110Z,98148.00
2023-11-10T09:34:29.411Z,98150.00
2023-11-10T09:34:40.946Z,98148.00
2023-11-10T09:34:52.250Z,98150.00
2023-11-10T09:35:03.780Z,98150.00
2023-11-10T09:35:15.323Z,98154.00
2023-11-10T09:35:26.956Z,98154.00
2023-11-10T09:35:38.219Z,98150.00
2023-11-10T09:35:49.751Z,98150.00
2023-11-10T09:36:01.074Z,98150.00
2023-11-10T09:36:12.574Z,98154.00
2023-11-10T09:36:23.874Z,98154.00
2023-11-10T09:36:35.596Z,98148.00
2023-11-10T09:36:46.968Z,98148.00
2023-11-10T09:36:58.577Z,98154.00
2023-11-10T09:37:09.839Z,98148.00
2023-11-10T09:37:21.365Z,98154.00
2023-11-10T09:37:32.631Z,98154.00
2023-11-10T09:37:44.210Z,98148.00
2023-11-10T09:37:55.536Z,98156.00
2023-11-10T09:38:07.066Z,98154.00
2023-11-10T09:38:18.431Z,98150.00
2023-11-10T09:38:29.973Z,98150.00
2023-11-10T09:38:41.261Z,98152.00
2023-11-10T09:38:52.811Z,98150.00
2023-11-10T09:39:04.102Z,98152.00
2023-11-10T09:39:15.646Z,98148.00
2023-11-10T09:39:26.948Z,98150.00
2023-11-10T09:39:38.510Z,98150.00
2023-11-10T09:39:49.887Z,98152.00
2023-11-10T09:40:01.591Z,98150.00
2023-11-10T09:40:12.889Z,98148.00
2023-11-10T09:40:24.795Z,98148.00
2023-11-10T09:40:36.105Z,98148.00
2023-11-10T09:40:47.690Z,98148.00
2023-11-10T09:40:59.058Z,98148.00
2023-11-10T09:41:10.575Z,98146.00
2023-11-10T09:41:21.842Z,98146.00
2023-11-10T09:41:33.372Z,98146.00
2023-11-10T09:41:44.648Z,98150.00
2023-11-10T09:41:56.593Z,98144.00
2023-11-10T09:42:07.859Z,98142.00
2023-11-10T09:42:19.383Z,98142.00
2023-11-10T09:42:30.878Z,98142.00
2023-11-10T09:42:42.471Z,98142.00
2023-11-10T09:42:53.839Z,98140.00
2023-11-10T09:43:05.363Z,98142.00
2023-11-10T09:43:16.591Z,98144.00
2023-11-10T09:43:28.123Z,98138.00
2023-11-10T09:43:39.425Z,98138.00
2023-11-10T09:43:50.963Z,98134.00
2023-11-10T09:44:02.230Z,98136.00
2023-11-10T09:44:13.774Z,98136.00
2023-11-10T09:44:25.028Z,98134.00
2023-11-10T09:44:36.553Z,98138.00
2023-11-10T09:44:47.829Z,98134.00
2023-11-10T09:44:59.406Z,98136.00
2023-11-10T09:45:10.650Z,98136.00
2023-11-10T09:45:23.592Z,98138.00
2023-11-10T09:45:32.774Z,98138.00
2023-11-10T09:45:44.312Z,98136.00
2023-11-10T09:45:55.674Z,98136.00
2023-11-10T09:46:07.305Z,98132.00
2023-11-10T09:46:18.733Z,98132.00
2023-11-10T09:46:30.344Z,98134.00
2023-11-10T09:46:41.702Z,98132.00
2023-11-10T09:46:53.242Z,98136.00
2023-11-10T09:47:04.550Z,98136.00
2023-11-10T09:47:16.070Z,98132.00
2023-11-10T09:47:27.610Z,98134.00
2023-11-10T09:47:39.326Z,98132.00
2023-11-10T09:47:50.684Z,98134.00
2023-11-10T09:48:02.301Z,98132.00
2023-11-10T09:48:13.632Z,98138.00
2023-11-10T09:48:25.149Z,98132.00
2023-11-10T09:48:36.397Z,98134.00
2023-11-10T09:48:48.028Z,98132.00
2023-11-10T09:48:59.371Z,98138.00
2023-11-10T09:49:10.914Z,98132.00
2023-11-10T09:49:22.178Z,98136.00
2023-11-10T09:49:33.731Z,98136.00
2023-11-10T09:49:45.492Z,98132.00
2023-11-10T09:49:57.001Z,98130.00
2023-11-10T09:50:08.350Z,98134.00
2023-11-10T09:50:19.845Z,98134.00
2023-11-10T09:50:31.118Z,98132.00
2023-11-10T09:50:42.645Z,98132.00
2023-11-10T09:50:53.919Z,98136.00
2023-11-10T09:51:05.446Z,98132.00
2023-11-10T09:51:16.697Z,98136.00
2023-11-10T09:51:28.301Z,98138.00
2023-11-10T09:51:39.622Z,98134.00
2023-11-10T09:51:51.195Z,98134.00
2023-11-10T09:52:02.488Z,98138.00
2023-11-10T09:52:14.002Z,98136.00
2023-11-10T09:52:25.255Z,98130.00
2023-11-10T09:52:36.786Z,98130.00
2023-11-10T09:52:48.057Z,98130.00
2023-11-10T09:52:59.617Z,98130.00
2023-11-10T09:53:10.868Z,98128.00
2023-11-10T09:53:22.395Z,98130.00
2023-11-10T09:53:33.966Z,98126.00
2023-11-10T09:53:45.505Z,98124.00
2023-11-10T09:53:56.801Z,98128.00
2023-11-10T09:54:08.339Z,98130.00
2023-11-10T09:54:19.668Z,98130.00
2023-11-10T09:54:31.884Z,98126.00
2023-11-10T09:54:43.406Z,98126.00
2023-11-10T09:54:54.738Z,98122.00
2023-11-10T09:55:06.293Z,98122.00
2023-11-10T09:55:17.630Z,98124.00
2023-11-10T09:55:29.151Z,98124.00
2023-11-10T09:55:40.439Z,98124.00
2023-11-10T09:55:51.995Z,98120.00
2023-11-10T09:56:03.267Z,98122.00
2023-11-10T09:56:14.801Z,98124.00
2023-11-10T09:56:26.077Z,98116.00
2023-11-10T09:56:37.645Z,98120.00
2023-11-10T09:56:48.925Z,98116.00
2023-11-10T09:57:00.475Z,98120.00
2023-11-10T09:57:11.718Z,98114.00
2023-11-10T09:57:26.145Z,98114.00
2023-11-10T09:57:34.584Z,98116.00
2023-11-10T09:57:45.904Z,98118.00
2023-11-10T09:57:57.540Z,98116.00
2023-11-10T09:58:08.814Z,98116.00
2023-11-10T09:58:20.344Z,98116.00
2023-11-10T09:58:31.623Z,98116.00
2023-11-10T09:58:43.131Z,98116.00
2023-11-10T09:58:54.425Z,98114.00
2023-11-10T09:59:05.948Z,98118.00
2023-11-10T09:59:17.232Z,98116.00
2023-11-10T09:59:28.754Z,98114.00
2023-11-10T09:59:40.037Z,98116.00
2023-11-10T09:59:51.554Z,98120.00
2023-11-10T10:00:02.832Z,98116.00
2023-11-10T10:00:14.565Z,98120.00
2023-11-10T10:00:26.061Z,98118.00
2023-11-10T10:00:37.579Z,98120.00
2023-11-10T10:00:48.881Z,98118.00
2023-11-10T10:01:01.397Z,98122.00
2023-11-10T10:01:10.659Z,98120.00
2023-11-10T10:01:22.163Z,98118.00